AIRPORT METAR

METAR FOR UTDD
ADDS - METARS form results

(1244 UTC 17 June 2019)
Data provider http://aviationweather.gov/metar/data/
 
METAR text: UTDD 171230Z 25004MPS 9999 FEW066 32/09 Q1007 R09/D NOSIG RMK QFE688/0917
Conditions at: UTDD (DUSHANBE , TJ) observed 1230 UTC 17 June 2019
Temperature: 32.0°C (90°F)
Dewpoint: 9.0°C (48°F) [RH = 24%]
Pressure (altimeter): 29.73 inches Hg (1007.0 mb)
Winds: from the WSW (250 degrees) at 9 MPH (8 knots; 4.1 m/s)
Visibility: 6 or more miles (10+ km)
Ceiling: at least 12,000 feet AGL
Clouds: few clouds at 6600 feet AGL
Weather: no significant weather observed at this time

METAR text: UTDD 171200Z 30003MPS 260V350 9999 FEW066 32/10 Q1007 R09/D NOSIG RMK QFE688/0917
Conditions at: UTDD (DUSHANBE , TJ) observed 1200 UTC 17 June 2019
Temperature: 32.0°C (90°F)
Dewpoint: 10.0°C (50°F) [RH = 26%]
Pressure (altimeter): 29.73 inches Hg (1007.0 mb)
Winds: from the WNW (300 degrees) at 7 MPH (6 knots; 3.1 m/s)
Visibility: 6 or more miles (10+ km)
Ceiling: at least 12,000 feet AGL
Clouds: few clouds at 6600 feet AGL
Weather: no significant weather observed at this time

Forecast for: UTDD (DUSHANBE , TJ)
Text: TAF UTDD 171200Z 1713/1801 VRB02MPS 6000 FEW060CB SCT100
Forecast period: 1300 UTC 17 June 2019 to 0100 UTC 18 June 2019
Forecast type: FROM: standard forecast or significant change
Winds: variable direction winds at 5 MPH (4 knots; 2.1 m/s)
Visibility: 4 miles (6 km)
Ceiling: at least 12,000 feet AGL
Clouds: few clouds at 6000 feet AGL
scattered clouds at 10000 feet AGL
Weather: no significant weather forecast for this period
Text: TEMPO 1713/1722 28006MPS
Forecast period: 1300 to 2200 UTC 17 June 2019
Forecast type: TEMPORARY: The following changes expected for less than half the time period
Winds: from the W (280 degrees) at 14 MPH (12 knots; 6.2 m/s)
Visibility: missing
Ceiling: unknown
Clouds: missing
Weather: no significant weather forecast for this period

AIRPORT MAP

 RUNWAY INFORMATION
Runway 09 Runway length 10170 ft Runway width 147 ft
Runway elevation 2575 ft Runway displaced threshold 0 ft Runway heading 90
Runway 27 Runway length 10170 ft Runway width 147 ft
Runway elevation 2543 ft Runway displaced threshold 1335 ft Runway heading 270

 AIRPORT FREQUENCIES
Type APP Name APP Frequency 127.1 MHZ
Type ATIS Name ATIS Frequency 126.2 MHZ
Type GND Name GND Frequency 121.7 MHZ
Type TWR Name TWR Frequency 119.2 MHZ

 AIRPORT NEAR NAVIGATION AIDS
Type VOR-DME Name Dushanbe Frequency 113600 KHZ
Type NDB Name Dushanbe Frequency 372 KHZ
Type NDB Name Dushanbe Frequency 420 KHZ



© 2017 - Royal Sky Service, All Right Reserved. | Design & Developed by Davide Torresan